createdAt,value
2022-12-28T00:01:27.649Z,4.22
2022-12-28T00:03:59.224Z,4.43
2022-12-28T00:06:26.901Z,5.68
2022-12-28T00:08:56.327Z,6.00
2022-12-28T00:11:30.364Z,7.05
2022-12-28T00:14:01.809Z,5.55
2022-12-28T00:16:31.434Z,6.50
2022-12-28T00:19:00.850Z,7.55
2022-12-28T00:21:29.127Z,6.60
2022-12-28T00:23:58.544Z,7.28
2022-12-28T00:26:27.818Z,5.95
2022-12-28T00:29:27.055Z,6.35
2022-12-28T00:31:59.968Z,5.15
2022-12-28T00:34:27.039Z,5.32
2022-12-28T00:37:08.702Z,5.50
2022-12-28T00:39:39.835Z,5.15
2022-12-28T00:42:06.659Z,5.10
2022-12-28T00:44:33.514Z,5.20
2022-12-28T00:47:13.504Z,6.28
2022-12-28T00:49:48.564Z,4.65
2022-12-28T00:52:15.521Z,4.55
2022-12-28T00:54:42.294Z,5.18
2022-12-28T00:57:09.027Z,5.20
2022-12-28T00:59:56.866Z,5.75
2022-12-28T01:02:25.809Z,5.93
2022-12-28T01:04:56.907Z,5.10
2022-12-28T01:07:23.647Z,4.47
2022-12-28T01:09:50.401Z,4.07
2022-12-28T01:12:17.289Z,4.53
2022-12-28T01:14:44.075Z,3.92
2022-12-28T01:17:10.931Z,4.70
2022-12-28T01:19:37.890Z,3.85
2022-12-28T01:22:04.664Z,4.55
2022-12-28T01:24:31.404Z,3.70
2022-12-28T01:26:58.186Z,4.43
2022-12-28T01:29:24.873Z,3.70
2022-12-28T01:31:51.725Z,3.97
2022-12-28T01:34:18.710Z,4.43
2022-12-28T01:36:45.510Z,4.38
2022-12-28T01:39:12.330Z,3.92
2022-12-28T01:41:41.193Z,3.95
2022-12-28T01:44:08.013Z,4.00
2022-12-28T01:47:05.764Z,4.80
2022-12-28T01:49:45.284Z,4.93
2022-12-28T01:52:29.141Z,4.57
2022-12-28T01:55:05.121Z,5.22
2022-12-28T01:57:41.433Z,5.18
2022-12-28T02:00:12.298Z,5.35
2022-12-28T02:02:43.577Z,6.47
2022-12-28T02:05:11.209Z,5.63
2022-12-28T02:07:53.729Z,6.15
2022-12-28T02:10:41.687Z,6.28
2022-12-28T02:13:10.311Z,5.07
2022-12-28T02:15:37.093Z,5.57
2022-12-28T02:18:04.289Z,4.65
2022-12-28T02:20:44.915Z,4.75
2022-12-28T02:23:26.910Z,3.92
2022-12-28T02:26:06.064Z,4.50
2022-12-28T02:29:06.814Z,4.65
2022-12-28T02:31:51.243Z,5.55
2022-12-28T02:34:26.319Z,7.38
2022-12-28T02:37:00.235Z,6.25
2022-12-28T02:39:40.123Z,4.32
2022-12-28T02:42:10.108Z,5.00
2022-12-28T02:44:57.149Z,3.75
2022-12-28T02:47:45.014Z,3.97
2022-12-28T02:50:16.029Z,4.47
2022-12-28T02:53:17.372Z,4.03
2022-12-28T02:56:10.739Z,4.22
2022-12-28T02:59:25.237Z,3.70
2022-12-28T03:02:26.014Z,4.00
2022-12-28T03:05:14.292Z,4.03
2022-12-28T03:08:20.417Z,3.50
2022-12-28T03:11:03.514Z,3.95
2022-12-28T03:14:17.975Z,4.13
2022-12-28T03:17:07.087Z,6.18
2022-12-28T03:23:17.026Z,6.43
2022-12-28T03:26:05.936Z,5.97
2022-12-28T03:28:54.100Z,7.80
2022-12-28T03:31:25.307Z,8.38
2022-12-28T03:34:06.951Z,7.82
2022-12-28T03:36:46.493Z,8.18
2022-12-28T03:39:52.052Z,7.65
2022-12-28T03:42:53.448Z,6.85
2022-12-28T03:45:45.101Z,6.40
2022-12-28T03:48:15.746Z,7.28
2022-12-28T03:50:45.578Z,7.65
2022-12-28T03:53:12.522Z,6.43
2022-12-28T03:55:40.616Z,6.75
2022-12-28T03:58:07.649Z,5.60
2022-12-28T04:00:34.538Z,5.72
2022-12-28T04:03:01.384Z,4.80
2022-12-28T04:05:28.298Z,5.78
2022-12-28T04:07:55.276Z,5.03
2022-12-28T04:10:22.068Z,4.97
2022-12-28T04:12:48.797Z,4.40
2022-12-28T04:15:15.615Z,5.72
2022-12-28T04:17:42.364Z,5.20
2022-12-28T04:20:10.151Z,5.82
2022-12-28T04:22:36.861Z,6.93
2022-12-28T04:25:06.135Z,6.05
2022-12-28T04:27:32.994Z,7.72
2022-12-28T04:29:59.764Z,8.38
2022-12-28T04:32:26.500Z,8.23
2022-12-28T04:34:53.519Z,8.80
2022-12-28T04:37:20.221Z,7.07
2022-12-28T04:39:56.259Z,6.65
2022-12-28T04:42:27.979Z,8.15
2022-12-28T04:44:54.741Z,12.68
2022-12-28T04:47:21.506Z,11.77
2022-12-28T04:49:48.490Z,11.45
2022-12-28T04:52:15.420Z,10.88
2022-12-28T04:54:42.212Z,10.00
2022-12-28T04:57:09.323Z,11.15
2022-12-28T04:59:36.051Z,9.82
2022-12-28T05:02:02.995Z,10.55
2022-12-28T05:04:30.142Z,10.02
2022-12-28T05:06:56.954Z,9.55
2022-12-28T05:09:24.119Z,10.30
2022-12-28T05:11:51.269Z,8.75
2022-12-28T05:14:18.033Z,8.55
2022-12-28T05:16:44.880Z,9.02
2022-12-28T05:19:11.793Z,8.77
2022-12-28T05:21:40.033Z,9.27
2022-12-28T05:24:07.269Z,9.38
2022-12-28T05:26:34.973Z,8.90
2022-12-28T05:29:02.493Z,9.82
2022-12-28T05:31:29.615Z,10.35
2022-12-28T05:33:56.694Z,11.40
2022-12-28T05:36:25.940Z,12.32
2022-12-28T05:38:53.881Z,16.65
2022-12-28T05:41:25.547Z,21.38
2022-12-28T05:43:52.689Z,20.92
2022-12-28T05:46:22.355Z,19.63
2022-12-28T05:48:49.197Z,19.90
2022-12-28T05:51:21.440Z,13.90
2022-12-28T05:53:48.629Z,13.80
2022-12-28T05:56:24.338Z,12.82
2022-12-28T05:58:57.198Z,14.15
2022-12-28T06:01:27.018Z,12.40
2022-12-28T06:03:56.515Z,13.60
2022-12-28T06:06:24.152Z,13.80
2022-12-28T06:08:51.474Z,24.95
2022-12-28T06:11:20.910Z,23.65
2022-12-28T06:16:38.825Z,16.95
2022-12-28T06:19:11.940Z,15.23
2022-12-28T06:21:40.242Z,16.60
2022-12-28T06:24:08.399Z,19.48
2022-12-28T06:26:37.859Z,19.23
2022-12-28T06:29:05.241Z,17.33
2022-12-28T06:31:41.534Z,18.98
2022-12-28T06:34:10.361Z,18.40
2022-12-28T06:36:40.930Z,17.33
2022-12-28T06:39:10.024Z,16.60
2022-12-28T06:41:37.488Z,18.13
2022-12-28T06:44:12.039Z,18.73
2022-12-28T06:46:40.254Z,19.63
2022-12-28T06:49:08.159Z,32.38
2022-12-28T06:51:40.890Z,35.88
2022-12-28T06:54:08.784Z,34.75
2022-12-28T06:56:36.480Z,22.88
2022-12-28T06:59:04.547Z,23.25
2022-12-28T07:01:34.900Z,25.92
2022-12-28T07:04:03.744Z,31.52
2022-12-28T07:06:34.110Z,37.63
2022-12-28T07:09:07.643Z,33.42
2022-12-28T07:11:35.324Z,26.60
2022-12-28T07:14:05.761Z,25.27
2022-12-28T07:19:01.067Z,22.25
2022-12-28T07:21:39.099Z,22.52
2022-12-28T07:24:07.756Z,20.77
2022-12-28T07:26:37.106Z,19.58
2022-12-28T07:29:06.031Z,23.55
2022-12-28T07:31:44.719Z,23.23
2022-12-28T07:34:13.842Z,21.63
2022-12-28T07:36:40.901Z,19.70
2022-12-28T07:39:07.659Z,19.05
2022-12-28T07:41:36.229Z,20.20
2022-12-28T07:44:03.236Z,17.95
2022-12-28T07:46:33.372Z,18.58
2022-12-28T07:49:01.174Z,20.80
2022-12-28T07:51:30.772Z,21.20
2022-12-28T07:53:59.563Z,51.00
2022-12-28T07:56:28.201Z,34.15
2022-12-28T07:58:57.818Z,30.60
2022-12-28T08:01:26.904Z,21.55
2022-12-28T08:03:56.513Z,23.55
2022-12-28T08:06:23.796Z,27.45
2022-12-28T08:08:55.394Z,29.48
2022-12-28T08:11:25.260Z,28.98
2022-12-28T08:13:54.402Z,31.92
2022-12-28T08:16:22.442Z,27.58
2022-12-28T08:18:49.947Z,25.92
2022-12-28T08:21:23.482Z,31.25
2022-12-28T08:23:52.166Z,33.90
2022-12-28T08:26:49.629Z,30.95
2022-12-28T08:29:20.120Z,31.60
2022-12-28T08:31:47.346Z,31.20
2022-12-28T08:34:27.287Z,30.17
2022-12-28T08:36:55.358Z,32.67
2022-12-28T08:39:22.241Z,32.55
2022-12-28T08:41:49.064Z,39.22
2022-12-28T08:44:15.783Z,37.70
2022-12-28T08:46:42.727Z,35.33
2022-12-28T08:49:09.769Z,33.00
2022-12-28T08:51:42.319Z,34.92
2022-12-28T08:54:10.548Z,38.25
2022-12-28T08:56:39.735Z,39.67
2022-12-28T08:59:06.872Z,36.65
2022-12-28T09:01:44.346Z,36.65
2022-12-28T09:04:17.087Z,33.92
2022-12-28T09:06:44.530Z,34.17
2022-12-28T09:09:16.874Z,34.92
2022-12-28T09:11:44.446Z,33.17
2022-12-28T09:14:20.407Z,35.05
2022-12-28T09:16:54.163Z,32.60
2022-12-28T09:19:22.554Z,43.30
2022-12-28T09:21:52.569Z,37.33
2022-12-28T09:24:19.664Z,35.65
2022-12-28T09:26:46.599Z,32.90
2022-12-28T09:29:14.322Z,34.17
2022-12-28T09:31:41.934Z,34.10
2022-12-28T09:36:59.664Z,28.10
2022-12-28T09:39:26.628Z,30.92
2022-12-28T09:42:09.017Z,30.55
2022-12-28T09:44:48.653Z,29.98
2022-12-28T09:47:46.326Z,32.92
2022-12-28T09:50:16.654Z,33.08
2022-12-28T09:52:58.467Z,34.28
2022-12-28T09:55:27.799Z,30.77
2022-12-28T09:57:59.283Z,30.85
2022-12-28T10:00:34.488Z,31.58
2022-12-28T10:03:03.904Z,34.15
2022-12-28T10:08:19.568Z,34.17
2022-12-28T10:10:49.453Z,35.45
2022-12-28T10:16:21.606Z,48.40
2022-12-28T10:18:49.548Z,47.28
2022-12-28T10:21:20.012Z,46.42
2022-12-28T10:26:46.198Z,42.72
2022-12-28T10:29:19.353Z,42.03
2022-12-28T10:31:57.993Z,42.92
2022-12-28T10:34:25.795Z,40.95
2022-12-28T10:36:54.427Z,42.08
2022-12-28T10:39:25.912Z,44.10
2022-12-28T10:41:53.818Z,42.88
2022-12-28T10:47:30.484Z,47.53
2022-12-28T10:52:56.682Z,44.78
2022-12-28T10:55:33.176Z,48.92
2022-12-28T10:58:33.069Z,46.83
2022-12-28T11:01:13.067Z,49.03
2022-12-28T11:03:21.012Z,47.80
2022-12-28T11:04:07.528Z,49.28
2022-12-28T11:06:51.028Z,52.67
2022-12-28T11:09:22.386Z,60.42
2022-12-28T11:11:52.535Z,59.83
2022-12-28T11:14:38.097Z,57.03
2022-12-28T11:17:25.837Z,54.30
2022-12-28T11:19:58.025Z,57.58
2022-12-28T11:22:28.672Z,59.22
2022-12-28T11:24:57.254Z,52.97
2022-12-28T11:27:24.649Z,50.80
2022-12-28T11:29:54.813Z,43.28
2022-12-28T11:32:25.488Z,47.70
2022-12-28T11:34:54.532Z,43.42
2022-12-28T11:37:21.889Z,41.33
2022-12-28T11:39:50.177Z,40.05
2022-12-28T11:42:40.713Z,37.42
2022-12-28T11:45:53.211Z,38.50
2022-12-28T11:48:42.188Z,39.92
2022-12-28T11:51:31.083Z,36.22
2022-12-28T11:54:00.992Z,35.03
2022-12-28T11:56:36.755Z,40.20
2022-12-28T11:59:20.847Z,28.30
2022-12-28T12:01:49.400Z,37.33
2022-12-28T12:04:39.939Z,36.40
2022-12-28T12:07:15.420Z,35.85
2022-12-28T12:09:45.436Z,41.28
2022-12-28T12:12:18.001Z,37.03
2022-12-28T12:14:57.797Z,40.00
2022-12-28T12:17:51.803Z,37.72
2022-12-28T12:20:57.197Z,39.15
2022-12-28T12:23:39.576Z,34.47
2022-12-28T12:26:29.836Z,37.65
2022-12-28T12:29:02.465Z,37.88
2022-12-28T12:31:34.051Z,40.33
2022-12-28T12:34:19.592Z,37.90
2022-12-28T12:37:05.261Z,38.13
2022-12-28T12:39:47.277Z,37.33
2022-12-28T12:42:40.169Z,37.17
2022-12-28T12:45:42.650Z,37.90
2022-12-28T12:48:40.358Z,39.28
2022-12-28T12:51:27.377Z,40.40
2022-12-28T12:54:21.302Z,40.35
2022-12-28T12:57:00.783Z,39.72
2022-12-28T13:00:02.096Z,36.25
2022-12-28T13:02:43.775Z,37.80
2022-12-28T13:05:19.224Z,40.03
2022-12-28T13:07:46.478Z,37.72
2022-12-28T13:10:26.902Z,40.05
2022-12-28T13:12:58.267Z,40.65
2022-12-28T13:15:25.194Z,41.40
2022-12-28T13:18:18.226Z,43.40
2022-12-28T13:21:03.738Z,52.95
2022-12-28T13:24:16.689Z,51.25
2022-12-28T13:26:44.127Z,59.75
2022-12-28T13:29:23.259Z,56.88
2022-12-28T13:31:58.108Z,46.40
2022-12-28T13:34:51.355Z,45.20
2022-12-28T13:37:27.190Z,42.72
2022-12-28T13:40:11.579Z,42.05
2022-12-28T13:43:16.809Z,45.08
2022-12-28T13:45:49.265Z,41.83
2022-12-28T13:48:18.075Z,41.97
2022-12-28T13:50:45.107Z,43.50
2022-12-28T13:53:24.330Z,44.40
2022-12-28T13:58:40.995Z,42.15
2022-12-28T14:01:26.231Z,36.85
2022-12-28T14:07:03.604Z,36.22
2022-12-28T14:09:30.641Z,34.75
2022-12-28T14:12:11.890Z,37.13
2022-12-28T14:15:00.284Z,35.58
2022-12-28T14:17:29.653Z,37.05
2022-12-28T14:19:58.124Z,40.40
2022-12-28T14:22:30.772Z,42.33
2022-12-28T14:25:04.991Z,38.35
2022-12-28T14:27:36.746Z,41.35
2022-12-28T14:30:07.415Z,43.35
2022-12-28T14:32:40.810Z,42.97
2022-12-28T14:35:20.727Z,42.17
2022-12-28T14:37:53.791Z,42.47
2022-12-28T14:41:00.965Z,43.70
2022-12-28T14:43:31.276Z,47.50
2022-12-28T14:48:49.393Z,63.05
2022-12-28T14:51:17.326Z,58.75
2022-12-28T14:53:45.508Z,55.60
2022-12-28T14:56:22.064Z,54.78
2022-12-28T14:59:09.375Z,54.83
2022-12-28T15:01:45.398Z,56.53
2022-12-28T15:04:27.229Z,57.67
2022-12-28T15:06:54.952Z,63.20
2022-12-28T15:09:22.008Z,66.20
2022-12-28T15:11:49.087Z,64.25
2022-12-28T15:14:45.356Z,61.78
2022-12-28T15:20:14.963Z,61.90
2022-12-28T15:22:48.498Z,68.65
2022-12-28T15:25:16.913Z,62.55
2022-12-28T15:27:49.258Z,61.70
2022-12-28T15:30:28.730Z,62.45
2022-12-28T15:32:56.219Z,62.67
2022-12-28T15:35:23.383Z,66.25
2022-12-28T15:37:51.255Z,69.68
2022-12-28T15:40:21.587Z,57.35
2022-12-28T15:42:48.361Z,44.63
2022-12-28T15:45:16.434Z,42.53
2022-12-28T15:47:46.669Z,37.80
2022-12-28T15:50:14.870Z,35.03
2022-12-28T15:52:52.559Z,39.30
2022-12-28T15:55:22.498Z,30.17
2022-12-28T15:57:49.370Z,33.13
2022-12-28T16:00:21.077Z,26.58
2022-12-28T16:02:50.476Z,28.20
2022-12-28T16:08:03.385Z,26.88
2022-12-28T16:10:30.256Z,25.25
2022-12-28T16:12:59.865Z,29.02
2022-12-28T16:18:16.553Z,27.13
2022-12-28T16:20:43.386Z,34.13
2022-12-28T16:23:18.177Z,50.58
2022-12-28T16:25:56.817Z,61.00
2022-12-28T16:28:40.839Z,64.82
2022-12-28T16:31:40.555Z,71.63
2022-12-28T16:34:18.715Z,79.15
2022-12-28T16:36:47.151Z,80.40
2022-12-28T16:39:32.354Z,85.18
2022-12-28T16:41:59.674Z,78.25
2022-12-28T16:44:34.186Z,75.25
2022-12-28T16:47:03.986Z,56.28
2022-12-28T16:49:39.502Z,38.70
2022-12-28T16:52:06.512Z,70.22
2022-12-28T16:54:38.049Z,73.05
2022-12-28T16:57:07.870Z,79.43
2022-12-28T16:59:34.552Z,78.18
2022-12-28T17:02:16.388Z,88.05
2022-12-28T17:04:43.947Z,88.13
2022-12-28T17:07:10.679Z,90.18
2022-12-28T17:09:37.736Z,92.70
2022-12-28T17:12:05.739Z,91.30
2022-12-28T17:14:39.522Z,95.32
2022-12-28T17:17:07.172Z,96.00
2022-12-28T17:19:37.436Z,94.15
2022-12-28T17:22:05.596Z,99.22
2022-12-28T17:24:32.837Z,100.43
2022-12-28T17:27:06.921Z,85.00
2022-12-28T17:29:34.559Z,86.05
2022-12-28T17:32:01.382Z,82.40
2022-12-28T17:34:28.968Z,78.85
2022-12-28T17:36:55.958Z,86.38
2022-12-28T17:39:22.589Z,92.25
2022-12-28T17:41:49.535Z,94.93
2022-12-28T17:44:16.276Z,100.43
2022-12-28T17:46:52.288Z,96.80
2022-12-28T17:49:19.673Z,95.75
2022-12-28T17:51:46.367Z,103.70
2022-12-28T17:54:14.991Z,103.57
2022-12-28T17:56:44.189Z,94.68
2022-12-28T17:59:16.358Z,89.55
2022-12-28T18:01:47.130Z,90.70
2022-12-28T18:04:14.603Z,85.82
2022-12-28T18:06:41.428Z,71.57
2022-12-28T18:09:08.205Z,110.35
2022-12-28T18:11:35.213Z,51.40
2022-12-28T18:14:01.965Z,66.22
2022-12-28T18:16:31.416Z,56.50
2022-12-28T18:18:59.057Z,52.33
2022-12-28T18:21:26.019Z,55.47
2022-12-28T18:23:53.328Z,57.03
2022-12-28T18:26:27.544Z,54.47
2022-12-28T18:29:00.825Z,55.83
2022-12-28T18:31:27.835Z,62.75
2022-12-28T18:33:55.132Z,62.13
2022-12-28T18:36:22.414Z,67.38
2022-12-28T18:38:49.722Z,60.17
2022-12-28T18:41:47.297Z,55.05
2022-12-28T18:45:03.465Z,61.92
2022-12-28T18:47:33.018Z,67.05
2022-12-28T18:50:05.960Z,66.78
2022-12-28T18:52:59.537Z,72.32
2022-12-28T18:55:28.327Z,71.53
2022-12-28T18:58:00.321Z,73.13
2022-12-28T19:00:30.617Z,77.97
2022-12-28T19:02:57.522Z,78.60
2022-12-28T19:05:24.591Z,79.05
2022-12-28T19:07:51.447Z,82.38
2022-12-28T19:10:21.421Z,80.80
2022-12-28T19:12:48.478Z,81.63
2022-12-28T19:15:15.396Z,82.03
2022-12-28T19:17:42.153Z,75.95
2022-12-28T19:20:09.299Z,80.18
2022-12-28T19:22:42.406Z,81.28
2022-12-28T19:25:10.063Z,83.35
2022-12-28T19:27:36.908Z,82.82
2022-12-28T19:30:10.768Z,80.97
2022-12-28T19:32:37.813Z,75.40
2022-12-28T19:35:11.668Z,72.65
2022-12-28T19:37:39.212Z,61.88
2022-12-28T19:40:06.937Z,61.47
2022-12-28T19:42:33.934Z,51.85
2022-12-28T19:45:06.424Z,49.20
2022-12-28T19:47:36.372Z,42.75
2022-12-28T19:50:05.395Z,46.47
2022-12-28T19:52:34.719Z,43.85
2022-12-28T19:55:01.978Z,41.42
2022-12-28T19:57:40.509Z,41.45
2022-12-28T20:00:09.488Z,43.03
2022-12-28T20:02:41.055Z,42.08
2022-12-28T20:05:08.621Z,43.28
2022-12-28T20:07:39.159Z,42.83
2022-12-28T20:10:06.923Z,39.65
2022-12-28T20:12:36.899Z,41.20
2022-12-28T20:18:08.021Z,46.03
2022-12-28T20:21:09.430Z,44.65
2022-12-28T20:23:27.682Z,51.17
2022-12-28T20:26:02.666Z,52.00
2022-12-28T20:28:30.193Z,48.03
2022-12-28T20:31:05.583Z,46.05
2022-12-28T20:33:34.513Z,47.42
2022-12-28T20:36:11.421Z,42.83
2022-12-28T20:38:38.887Z,43.22
2022-12-28T20:41:50.615Z,42.78
2022-12-28T20:44:28.415Z,49.38
2022-12-28T20:47:15.397Z,43.60
2022-12-28T20:49:42.238Z,45.80
2022-12-28T20:52:09.021Z,45.58
2022-12-28T20:54:36.118Z,43.72
2022-12-28T20:57:07.329Z,45.75
2022-12-28T20:59:34.075Z,45.25
2022-12-28T21:02:01.348Z,42.85
2022-12-28T21:04:28.230Z,41.55
2022-12-28T21:06:55.532Z,45.58
2022-12-28T21:09:25.754Z,44.33
2022-12-28T21:11:52.998Z,44.88
2022-12-28T21:14:23.192Z,44.83
2022-12-28T21:16:52.001Z,45.28
2022-12-28T21:19:20.111Z,44.83
2022-12-28T21:21:50.411Z,44.03
2022-12-28T21:24:17.363Z,44.30
2022-12-28T21:26:45.930Z,45.92
2022-12-28T21:29:30.597Z,45.88
2022-12-28T21:31:57.626Z,48.55
2022-12-28T21:34:33.418Z,43.33
2022-12-28T21:37:20.001Z,36.72
2022-12-28T21:39:47.034Z,40.33
2022-12-28T21:42:14.846Z,43.72
2022-12-28T21:44:43.174Z,42.38
2022-12-28T21:50:18.264Z,45.88
2022-12-28T21:52:45.255Z,47.35
2022-12-28T21:55:41.216Z,50.40
2022-12-28T22:01:40.376Z,50.03
2022-12-28T22:04:26.400Z,52.42
2022-12-28T22:06:53.282Z,50.45
2022-12-28T22:09:39.433Z,50.95
2022-12-28T22:12:24.989Z,51.70
2022-12-28T22:15:11.744Z,55.58
2022-12-28T22:17:38.421Z,54.35
2022-12-28T22:20:05.930Z,52.15
2022-12-28T22:22:32.945Z,49.95
2022-12-28T22:24:59.702Z,48.03
2022-12-28T22:27:26.538Z,48.17
2022-12-28T22:29:53.457Z,48.72
2022-12-28T22:32:20.244Z,50.53
2022-12-28T22:34:47.067Z,48.42
2022-12-28T22:37:14.445Z,49.03
2022-12-28T22:39:41.179Z,46.60
2022-12-28T22:42:08.828Z,49.50
2022-12-28T22:44:36.760Z,41.85
2022-12-28T22:47:04.680Z,39.78
2022-12-28T22:49:31.407Z,42.78
2022-12-28T22:51:58.260Z,44.17
2022-12-28T22:54:25.202Z,40.45
2022-12-28T22:56:52.304Z,41.90
2022-12-28T22:59:19.171Z,31.25
2022-12-28T23:01:48.377Z,39.78
2022-12-28T23:04:15.792Z,39.78
2022-12-28T23:06:42.590Z,41.03
2022-12-28T23:09:09.379Z,39.40
2022-12-28T23:11:42.067Z,33.33
2022-12-28T23:14:39.642Z,34.28
2022-12-28T23:17:12.205Z,38.83
2022-12-28T23:19:58.074Z,39.38
2022-12-28T23:22:46.005Z,39.30
2022-12-28T23:25:43.169Z,41.88
2022-12-28T23:28:12.522Z,42.78
2022-12-28T23:30:45.933Z,42.47
2022-12-28T23:33:13.144Z,43.88
2022-12-28T23:35:39.992Z,42.20
2022-12-28T23:38:06.907Z,44.42
2022-12-28T23:40:41.047Z,45.28
2022-12-28T23:43:08.646Z,44.63
2022-12-28T23:45:36.341Z,45.00
2022-12-28T23:48:04.624Z,39.45
2022-12-28T23:50:39.431Z,41.25
2022-12-28T23:53:06.402Z,41.15
2022-12-28T23:55:36.370Z,40.15
2022-12-28T23:58:20.586Z,40.28
